createdAt,value
2019-06-26T00:01:11.199Z,99.90
2019-06-26T00:03:39.816Z,99.90
2019-06-26T00:06:08.546Z,99.90
2019-06-26T00:08:37.104Z,99.90
2019-06-26T00:11:05.743Z,99.90
2019-06-26T00:13:34.428Z,99.90
2019-06-26T00:16:02.996Z,99.90
2019-06-26T00:18:31.594Z,99.90
2019-06-26T00:21:00.168Z,99.90
2019-06-26T00:23:28.783Z,99.90
2019-06-26T00:25:57.336Z,99.90
2019-06-26T00:28:25.911Z,99.90
2019-06-26T00:30:54.463Z,99.90
2019-06-26T00:33:23.039Z,99.90
2019-06-26T00:35:52.067Z,99.90
2019-06-26T00:38:20.674Z,99.90
2019-06-26T00:40:49.263Z,99.90
2019-06-26T00:43:17.843Z,99.90
2019-06-26T00:45:46.400Z,99.90
2019-06-26T00:48:15.291Z,99.90
2019-06-26T00:50:43.914Z,99.90
2019-06-26T00:53:12.562Z,99.90
2019-06-26T00:55:41.143Z,99.90
2019-06-26T00:58:09.709Z,99.90
2019-06-26T01:00:44.328Z,99.90
2019-06-26T01:03:12.873Z,99.90
2019-06-26T01:05:41.449Z,99.90
2019-06-26T01:08:10.072Z,99.90
2019-06-26T01:10:38.667Z,99.90
2019-06-26T01:13:07.222Z,99.90
2019-06-26T01:15:35.885Z,99.90
2019-06-26T01:18:04.535Z,99.90
2019-06-26T01:20:33.207Z,99.90
2019-06-26T01:23:01.950Z,99.90
2019-06-26T01:25:30.521Z,99.90
2019-06-26T01:27:59.093Z,99.90
2019-06-26T01:30:28.489Z,99.90
2019-06-26T01:32:57.075Z,99.90
2019-06-26T01:35:25.619Z,99.90
2019-06-26T01:37:54.178Z,99.90
2019-06-26T01:40:23.761Z,99.90
2019-06-26T01:42:52.311Z,99.90
2019-06-26T01:45:20.970Z,99.90
2019-06-26T01:47:49.560Z,99.90
2019-06-26T01:50:18.394Z,99.90
2019-06-26T01:52:46.882Z,99.90
2019-06-26T01:55:15.591Z,99.90
2019-06-26T01:57:44.140Z,99.90
2019-06-26T02:00:12.970Z,99.90
2019-06-26T02:02:41.506Z,99.90
2019-06-26T02:05:10.417Z,99.90
2019-06-26T02:07:38.949Z,99.90
2019-06-26T02:10:09.135Z,99.90
2019-06-26T02:12:37.757Z,99.90
2019-06-26T02:15:07.176Z,99.90
2019-06-26T02:17:35.747Z,99.90
2019-06-26T02:20:06.806Z,99.90
2019-06-26T02:22:35.382Z,99.90
2019-06-26T02:25:05.294Z,99.90
2019-06-26T02:27:33.991Z,99.90
2019-06-26T02:30:02.570Z,99.90
2019-06-26T02:32:31.139Z,99.90
2019-06-26T02:34:59.719Z,99.90
2019-06-26T02:37:28.276Z,99.90
2019-06-26T02:39:56.869Z,99.90
2019-06-26T02:42:25.533Z,99.90
2019-06-26T02:44:54.678Z,99.90
2019-06-26T02:47:23.392Z,99.90
2019-06-26T02:49:52.826Z,99.90
2019-06-26T02:52:21.445Z,99.90
2019-06-26T02:54:50.020Z,99.90
2019-06-26T02:57:18.592Z,99.90
2019-06-26T02:59:47.179Z,99.90
2019-06-26T03:02:15.822Z,99.90
2019-06-26T03:04:44.414Z,99.90
2019-06-26T03:07:13.091Z,99.90
2019-06-26T03:09:41.700Z,99.90
2019-06-26T03:12:10.339Z,99.90
2019-06-26T03:14:38.921Z,99.90
2019-06-26T03:17:07.500Z,99.90
2019-06-26T03:19:36.080Z,99.90
2019-06-26T03:22:04.640Z,99.90
2019-06-26T03:24:33.235Z,99.90
2019-06-26T03:27:01.771Z,99.90
2019-06-26T03:29:30.372Z,99.90
2019-06-26T03:31:58.913Z,99.90
2019-06-26T03:34:27.552Z,99.90
2019-06-26T03:36:56.100Z,99.90
2019-06-26T03:39:24.704Z,99.90
2019-06-26T03:41:53.313Z,99.90
2019-06-26T03:44:21.897Z,99.90
2019-06-26T03:46:50.528Z,99.90
2019-06-26T03:49:19.171Z,99.90
2019-06-26T03:51:47.813Z,99.90
2019-06-26T03:54:16.390Z,99.90
2019-06-26T03:56:44.958Z,99.90
2019-06-26T03:59:13.582Z,99.90
2019-06-26T04:01:42.140Z,99.90
2019-06-26T04:04:10.745Z,99.90
2019-06-26T04:06:39.325Z,99.90
2019-06-26T04:09:07.910Z,99.90
2019-06-26T04:11:36.493Z,99.90
2019-06-26T04:14:05.534Z,99.90
2019-06-26T04:16:34.064Z,99.90
2019-06-26T04:19:02.678Z,99.90
2019-06-26T04:21:31.222Z,99.90
2019-06-26T04:23:59.813Z,99.90
2019-06-26T04:26:28.385Z,99.90
2019-06-26T04:28:56.919Z,99.90
2019-06-26T04:31:25.497Z,99.90
2019-06-26T04:33:54.118Z,99.90
2019-06-26T04:36:22.757Z,99.90
2019-06-26T04:38:51.315Z,99.90
2019-06-26T04:41:19.903Z,99.90
2019-06-26T04:43:48.482Z,99.90
2019-06-26T04:46:17.028Z,99.90
2019-06-26T04:48:45.582Z,99.90
2019-06-26T04:51:14.133Z,99.90
2019-06-26T04:53:42.722Z,99.90
2019-06-26T04:56:11.336Z,99.90
2019-06-26T04:58:40.005Z,99.90
2019-06-26T05:01:08.732Z,99.90
2019-06-26T05:03:37.356Z,99.90
2019-06-26T05:06:06.004Z,99.90
2019-06-26T05:08:34.656Z,99.90
2019-06-26T05:11:03.413Z,99.90
2019-06-26T05:13:32.091Z,99.90
2019-06-26T05:16:13.733Z,99.90
2019-06-26T05:18:31.007Z,99.90
2019-06-26T05:20:59.580Z,99.90
2019-06-26T05:23:28.142Z,99.90
2019-06-26T05:25:56.820Z,99.90
2019-06-26T05:28:25.502Z,99.90
2019-06-26T05:30:54.121Z,99.90
2019-06-26T05:33:22.727Z,99.90
2019-06-26T05:35:51.369Z,99.90
2019-06-26T05:38:20.114Z,99.90
2019-06-26T05:40:48.859Z,99.90
2019-06-26T05:43:17.449Z,99.90
2019-06-26T05:45:46.034Z,99.90
2019-06-26T05:48:14.624Z,99.90
2019-06-26T05:50:44.088Z,99.90
2019-06-26T05:53:12.639Z,99.90
2019-06-26T05:55:41.895Z,99.90
2019-06-26T05:58:10.486Z,99.90
2019-06-26T06:00:39.021Z,99.90
2019-06-26T06:03:07.704Z,99.90
2019-06-26T06:05:36.458Z,99.90
2019-06-26T06:08:05.099Z,99.90
2019-06-26T06:10:33.753Z,99.90
2019-06-26T06:13:02.317Z,99.90
2019-06-26T06:15:30.939Z,99.90
2019-06-26T06:17:59.592Z,99.90
2019-06-26T06:20:39.261Z,99.90
2019-06-26T06:23:07.914Z,99.90
2019-06-26T06:25:36.522Z,99.90
2019-06-26T06:28:05.111Z,99.90
2019-06-26T06:30:33.793Z,99.90
2019-06-26T06:33:02.941Z,99.90
2019-06-26T06:35:31.672Z,99.90
2019-06-26T06:38:00.271Z,99.90
2019-06-26T06:40:29.019Z,99.90
2019-06-26T06:42:57.608Z,99.90
2019-06-26T06:45:26.517Z,99.90
2019-06-26T06:47:55.193Z,99.90
2019-06-26T06:50:23.807Z,99.90
2019-06-26T06:52:52.364Z,99.90
2019-06-26T06:55:21.545Z,99.90
2019-06-26T06:57:50.348Z,99.90
2019-06-26T07:00:19.589Z,99.90
2019-06-26T07:02:48.187Z,99.90
2019-06-26T07:05:16.954Z,99.90
2019-06-26T07:07:45.577Z,99.90
2019-06-26T07:10:14.274Z,99.90
2019-06-26T07:12:42.833Z,99.90
2019-06-26T07:15:11.987Z,99.90
2019-06-26T07:17:40.554Z,99.90
2019-06-26T07:20:09.423Z,99.90
2019-06-26T07:22:38.104Z,99.90
2019-06-26T07:25:07.106Z,99.90
2019-06-26T07:27:36.617Z,99.90
2019-06-26T07:30:09.244Z,99.90
2019-06-26T07:32:37.888Z,99.90
2019-06-26T07:35:07.330Z,99.90
2019-06-26T07:37:35.894Z,99.90
2019-06-26T07:40:06.535Z,99.90
2019-06-26T07:42:35.088Z,99.90
2019-06-26T07:45:05.015Z,99.90
2019-06-26T07:47:43.053Z,99.90
2019-06-26T07:50:04.635Z,99.90
2019-06-26T07:52:33.302Z,99.90
2019-06-26T07:55:01.903Z,99.90
2019-06-26T07:57:30.471Z,99.90
2019-06-26T07:59:59.073Z,99.90
2019-06-26T08:02:27.737Z,99.90
2019-06-26T08:04:56.944Z,99.90
2019-06-26T08:07:25.569Z,99.90
2019-06-26T08:09:54.181Z,99.90
2019-06-26T08:12:22.725Z,99.90
2019-06-26T08:14:51.344Z,99.90
2019-06-26T08:17:19.903Z,99.90
2019-06-26T08:19:48.493Z,99.60
2019-06-26T08:22:17.156Z,99.40
2019-06-26T08:24:45.790Z,98.60
2019-06-26T08:27:14.362Z,98.00
2019-06-26T08:29:43.034Z,97.40
2019-06-26T08:32:11.617Z,98.50
2019-06-26T08:34:40.223Z,97.40
2019-06-26T08:37:08.814Z,97.50
2019-06-26T08:39:37.472Z,97.00
2019-06-26T08:42:06.067Z,96.80
2019-06-26T08:44:34.662Z,96.60
2019-06-26T08:47:03.194Z,95.50
2019-06-26T08:49:31.923Z,92.30
2019-06-26T08:52:00.722Z,93.30
2019-06-26T08:54:29.406Z,92.50
2019-06-26T08:56:58.077Z,91.70
2019-06-26T08:59:26.702Z,92.00
2019-06-26T09:01:55.334Z,91.30
2019-06-26T09:04:24.015Z,93.00
2019-06-26T09:06:52.561Z,92.40
2019-06-26T09:09:21.161Z,92.50
2019-06-26T09:11:49.778Z,92.00
2019-06-26T09:14:18.404Z,91.30
2019-06-26T09:16:47.098Z,90.70
2019-06-26T09:19:15.955Z,88.80
2019-06-26T09:21:44.568Z,90.80
2019-06-26T09:24:13.191Z,90.00
2019-06-26T09:26:41.783Z,90.60
2019-06-26T09:29:10.421Z,89.00
2019-06-26T09:31:39.012Z,87.00
2019-06-26T09:34:07.718Z,85.70
2019-06-26T09:36:36.399Z,85.50
2019-06-26T09:39:07.653Z,83.00
2019-06-26T09:41:36.382Z,84.00
2019-06-26T09:44:05.145Z,83.10
2019-06-26T09:46:33.787Z,83.10
2019-06-26T09:49:02.430Z,82.10
2019-06-26T09:51:31.121Z,81.50
2019-06-26T09:53:59.691Z,83.50
2019-06-26T09:56:28.241Z,79.10
2019-06-26T09:58:56.860Z,76.30
2019-06-26T10:01:25.517Z,78.80
2019-06-26T10:03:54.158Z,77.80
2019-06-26T10:06:22.798Z,82.20
2019-06-26T10:08:54.126Z,78.20
2019-06-26T10:11:21.651Z,78.50
2019-06-26T10:13:50.329Z,81.00
2019-06-26T10:16:18.887Z,81.30
2019-06-26T10:18:47.541Z,80.80
2019-06-26T10:21:16.150Z,83.00
2019-06-26T10:23:44.809Z,79.80
2019-06-26T10:26:13.468Z,75.70
2019-06-26T10:28:42.022Z,74.90
2019-06-26T10:31:10.697Z,76.20
2019-06-26T10:33:39.281Z,78.00
2019-06-26T10:36:07.877Z,72.40
2019-06-26T10:38:36.497Z,75.70
2019-06-26T10:41:05.316Z,72.80
2019-06-26T10:43:33.928Z,74.50
2019-06-26T10:46:02.598Z,74.20
2019-06-26T10:48:31.183Z,71.40
2019-06-26T10:50:59.835Z,70.10
2019-06-26T10:53:28.466Z,67.90
2019-06-26T10:55:57.041Z,67.20
2019-06-26T10:58:25.683Z,68.70
2019-06-26T11:00:54.338Z,68.90
2019-06-26T11:03:23.035Z,67.80
2019-06-26T11:05:51.588Z,68.00
2019-06-26T11:08:20.194Z,70.60
2019-06-26T11:10:48.787Z,65.70
2019-06-26T11:13:17.424Z,65.80
2019-06-26T11:15:46.021Z,70.40
2019-06-26T11:18:14.593Z,68.50
2019-06-26T11:20:43.299Z,69.30
2019-06-26T11:23:11.850Z,64.90
2019-06-26T11:25:44.055Z,65.90
2019-06-26T11:28:10.738Z,67.00
2019-06-26T11:30:39.343Z,65.20
2019-06-26T11:33:07.915Z,64.70
2019-06-26T11:35:36.493Z,63.00
2019-06-26T11:38:05.215Z,66.40
2019-06-26T11:40:33.865Z,65.60
2019-06-26T11:43:02.417Z,66.90
2019-06-26T11:45:31.120Z,65.70
2019-06-26T11:47:59.692Z,66.60
2019-06-26T11:50:28.471Z,63.80
2019-06-26T11:52:57.071Z,65.60
2019-06-26T11:55:25.778Z,61.40
2019-06-26T11:57:54.386Z,59.70
2019-06-26T12:00:23.931Z,62.50
2019-06-26T12:02:52.836Z,62.50
2019-06-26T12:05:21.963Z,59.00
2019-06-26T12:07:50.649Z,63.40
2019-06-26T12:10:20.567Z,62.40
2019-06-26T12:12:49.137Z,58.50
2019-06-26T12:15:19.123Z,59.60
2019-06-26T12:17:47.698Z,60.00
2019-06-26T12:20:19.089Z,57.50
2019-06-26T12:22:46.863Z,52.20
2019-06-26T12:25:15.516Z,55.40
2019-06-26T12:27:44.088Z,52.10
2019-06-26T12:30:12.922Z,52.30
2019-06-26T12:32:44.222Z,56.60
2019-06-26T12:35:11.825Z,56.80
2019-06-26T12:37:40.493Z,56.10
2019-06-26T12:40:09.904Z,58.50
2019-06-26T12:42:38.592Z,55.50
2019-06-26T12:45:08.537Z,56.70
2019-06-26T12:47:37.116Z,54.40
2019-06-26T12:50:07.643Z,54.80
2019-06-26T12:52:36.292Z,57.70
2019-06-26T12:55:05.916Z,55.20
2019-06-26T12:57:34.833Z,55.60
2019-06-26T13:00:05.265Z,53.00
2019-06-26T13:02:33.854Z,54.30
2019-06-26T13:05:02.606Z,55.20
2019-06-26T13:07:31.337Z,56.70
2019-06-26T13:09:59.931Z,54.60
2019-06-26T13:12:28.645Z,53.50
2019-06-26T13:14:57.254Z,53.20
2019-06-26T13:17:25.963Z,52.90
2019-06-26T13:19:54.613Z,54.90
2019-06-26T13:22:23.291Z,52.60
2019-06-26T13:24:51.877Z,54.60
2019-06-26T13:27:20.460Z,51.80
2019-06-26T13:29:49.027Z,52.00
2019-06-26T13:32:17.607Z,54.10
2019-06-26T13:34:46.200Z,53.20
2019-06-26T13:37:14.796Z,52.10
2019-06-26T13:39:43.341Z,52.00
2019-06-26T13:42:11.934Z,52.80
2019-06-26T13:44:40.657Z,53.00
2019-06-26T13:47:09.335Z,52.70
2019-06-26T13:49:37.902Z,53.70
2019-06-26T13:52:06.692Z,54.90
2019-06-26T13:54:35.265Z,55.00
2019-06-26T13:57:03.944Z,54.00
2019-06-26T13:59:32.489Z,52.60
2019-06-26T14:02:00.995Z,50.80
2019-06-26T14:04:29.579Z,52.10
2019-06-26T14:06:58.173Z,51.10
2019-06-26T14:09:27.404Z,52.90
2019-06-26T14:11:55.975Z,55.20
2019-06-26T14:14:40.808Z,55.20
2019-06-26T14:16:54.818Z,55.00
2019-06-26T14:19:26.631Z,54.30
2019-06-26T14:21:53.651Z,54.00
2019-06-26T14:24:22.218Z,56.10
2019-06-26T14:26:50.885Z,54.90
2019-06-26T14:29:21.259Z,52.90
2019-06-26T14:31:49.647Z,53.70
2019-06-26T14:34:18.298Z,52.90
2019-06-26T14:36:46.966Z,53.20
2019-06-26T14:39:15.526Z,54.90
2019-06-26T14:41:44.090Z,57.30
2019-06-26T14:44:13.638Z,56.10
2019-06-26T14:46:42.242Z,56.70
2019-06-26T14:49:10.903Z,55.80
2019-06-26T14:51:46.748Z,56.90
2019-06-26T14:54:09.766Z,56.90
2019-06-26T14:56:38.306Z,54.90
2019-06-26T14:59:07.352Z,55.90
2019-06-26T15:01:35.919Z,55.60
2019-06-26T15:04:04.645Z,55.70
2019-06-26T15:06:33.274Z,57.50
2019-06-26T15:09:01.841Z,55.60
2019-06-26T15:11:30.425Z,54.20
2019-06-26T15:13:59.086Z,55.90
2019-06-26T15:16:30.389Z,55.80
2019-06-26T15:18:57.945Z,55.70
2019-06-26T15:21:26.531Z,57.60
2019-06-26T15:23:55.185Z,55.70
2019-06-26T15:26:23.818Z,56.10
2019-06-26T15:28:52.428Z,56.10
2019-06-26T15:31:20.973Z,56.80
2019-06-26T15:33:49.533Z,57.10
2019-06-26T15:36:18.142Z,56.20
2019-06-26T15:38:46.714Z,56.60
2019-06-26T15:41:15.410Z,57.50
2019-06-26T15:43:44.072Z,57.70
2019-06-26T15:46:12.705Z,56.40
2019-06-26T15:48:41.379Z,56.60
2019-06-26T15:51:10.102Z,56.80
2019-06-26T15:53:39.711Z,58.10
2019-06-26T15:56:08.305Z,57.30
2019-06-26T15:58:36.992Z,56.30
2019-06-26T16:01:05.897Z,57.80
2019-06-26T16:03:34.493Z,58.20
2019-06-26T16:06:03.189Z,58.30
2019-06-26T16:08:31.867Z,60.00
2019-06-26T16:11:00.529Z,60.20
2019-06-26T16:13:29.666Z,59.50
2019-06-26T16:15:58.278Z,62.10
2019-06-26T16:18:34.269Z,62.10
2019-06-26T16:21:03.277Z,64.70
2019-06-26T16:23:31.917Z,64.70
2019-06-26T16:26:00.640Z,66.40
2019-06-26T16:28:29.320Z,66.40
2019-06-26T16:30:58.005Z,67.50
2019-06-26T16:33:26.784Z,67.80
2019-06-26T16:35:55.396Z,68.70
2019-06-26T16:38:24.134Z,68.80
2019-06-26T16:40:52.750Z,68.50
2019-06-26T16:43:21.962Z,69.80
2019-06-26T16:45:51.279Z,70.50
2019-06-26T16:48:21.046Z,71.90
2019-06-26T16:50:49.738Z,72.80
2019-06-26T16:53:18.556Z,71.90
2019-06-26T16:55:47.410Z,71.60
2019-06-26T16:58:16.066Z,70.60
2019-06-26T17:00:44.725Z,71.90
2019-06-26T17:03:13.504Z,71.90
2019-06-26T17:05:42.184Z,75.30
2019-06-26T17:08:10.963Z,75.10
2019-06-26T17:10:39.847Z,76.40
2019-06-26T17:13:08.514Z,75.00
2019-06-26T17:15:37.178Z,75.40
2019-06-26T17:18:06.075Z,74.80
2019-06-26T17:20:34.966Z,75.20
2019-06-26T17:23:05.973Z,74.00
2019-06-26T17:25:34.040Z,72.20
2019-06-26T17:28:02.856Z,74.30
2019-06-26T17:30:31.631Z,74.10
2019-06-26T17:33:00.258Z,76.70
2019-06-26T17:35:29.017Z,75.70
2019-06-26T17:37:57.809Z,76.10
2019-06-26T17:40:26.603Z,76.80
2019-06-26T17:43:11.073Z,80.80
2019-06-26T17:45:25.775Z,82.70
2019-06-26T17:47:54.537Z,79.80
2019-06-26T17:50:23.368Z,80.80
2019-06-26T17:52:52.097Z,84.30
2019-06-26T17:55:20.669Z,87.40
2019-06-26T17:57:49.558Z,88.60
2019-06-26T18:00:21.293Z,89.00
2019-06-26T18:02:49.884Z,88.70
2019-06-26T18:05:18.574Z,89.60
2019-06-26T18:07:47.184Z,90.00
2019-06-26T18:10:15.917Z,90.40
2019-06-26T18:12:44.533Z,91.30
2019-06-26T18:15:14.084Z,91.30
2019-06-26T18:17:42.776Z,91.60
2019-06-26T18:20:11.580Z,91.50
2019-06-26T18:22:40.137Z,92.10
2019-06-26T18:25:08.980Z,91.80
2019-06-26T18:27:37.545Z,92.60
2019-06-26T18:30:10.123Z,92.60
2019-06-26T18:32:38.896Z,93.40
2019-06-26T18:35:08.640Z,93.40
2019-06-26T18:37:37.202Z,93.20
2019-06-26T18:40:07.532Z,94.00
2019-06-26T18:42:39.259Z,94.80
2019-06-26T18:45:08.607Z,95.30
2019-06-26T18:47:37.440Z,95.60
2019-06-26T18:50:08.348Z,96.40
2019-06-26T18:52:36.966Z,97.00
2019-06-26T18:55:07.230Z,97.70
2019-06-26T18:57:35.861Z,98.90
2019-06-26T19:00:06.388Z,99.60
2019-06-26T19:02:35.051Z,99.90
2019-06-26T19:05:05.591Z,99.90
2019-06-26T19:07:34.215Z,99.90
2019-06-26T19:10:02.857Z,99.90
2019-06-26T19:12:31.433Z,99.90
2019-06-26T19:15:00.078Z,99.90
2019-06-26T19:17:35.331Z,99.90
2019-06-26T19:20:07.073Z,99.90
2019-06-26T19:22:35.698Z,99.90
2019-06-26T19:25:06.529Z,99.90
2019-06-26T19:27:35.189Z,99.90
2019-06-26T19:30:08.106Z,99.90
2019-06-26T19:32:37.621Z,99.90
2019-06-26T19:35:18.719Z,99.90
2019-06-26T19:37:37.918Z,99.90
2019-06-26T19:40:08.710Z,99.90
2019-06-26T19:42:37.393Z,99.90
2019-06-26T19:45:08.020Z,99.90
2019-06-26T19:47:37.118Z,99.90
2019-06-26T19:50:07.768Z,99.90
2019-06-26T19:52:36.652Z,99.90
2019-06-26T19:55:08.043Z,99.90
2019-06-26T19:57:36.722Z,99.90
2019-06-26T20:00:11.979Z,99.90
2019-06-26T20:02:40.687Z,99.90
2019-06-26T20:05:09.651Z,99.90
2019-06-26T20:07:38.552Z,99.90
2019-06-26T20:10:08.898Z,99.90
2019-06-26T20:12:37.732Z,99.90
2019-06-26T20:15:07.330Z,99.90
2019-06-26T20:17:35.939Z,99.90
2019-06-26T20:20:06.818Z,99.90
2019-06-26T20:22:35.588Z,99.90
2019-06-26T20:25:08.465Z,99.90
2019-06-26T20:27:37.355Z,99.90
2019-06-26T20:30:09.573Z,99.90
2019-06-26T20:32:37.227Z,99.90
2019-06-26T20:35:06.928Z,99.90
2019-06-26T20:37:35.639Z,99.90
2019-06-26T20:40:06.185Z,99.90
2019-06-26T20:42:35.081Z,99.90
2019-06-26T20:45:05.362Z,99.90
2019-06-26T20:47:33.936Z,99.90
2019-06-26T20:50:02.677Z,99.90
2019-06-26T20:52:31.470Z,99.90
2019-06-26T20:55:02.646Z,99.90
2019-06-26T20:57:30.921Z,99.90
2019-06-26T20:59:59.577Z,99.90
2019-06-26T21:02:28.310Z,99.90
2019-06-26T21:04:57.141Z,99.90
2019-06-26T21:07:25.705Z,99.90
2019-06-26T21:09:54.398Z,99.90
2019-06-26T21:12:22.978Z,99.90
2019-06-26T21:14:51.616Z,99.90
2019-06-26T21:17:20.171Z,99.90
2019-06-26T21:19:48.750Z,99.90
2019-06-26T21:22:17.309Z,99.90
2019-06-26T21:24:45.948Z,99.90
2019-06-26T21:27:14.722Z,99.90
2019-06-26T21:29:43.312Z,99.90
2019-06-26T21:32:12.040Z,99.90
2019-06-26T21:34:40.638Z,99.90
2019-06-26T21:37:09.185Z,99.90
2019-06-26T21:39:37.773Z,99.90
2019-06-26T21:42:06.313Z,99.90
2019-06-26T21:44:34.817Z,99.90
2019-06-26T21:47:03.361Z,99.90
2019-06-26T21:49:31.910Z,99.90
2019-06-26T21:52:00.544Z,99.90
2019-06-26T21:54:29.026Z,99.90
2019-06-26T21:56:57.592Z,99.90
2019-06-26T21:59:26.142Z,99.90
2019-06-26T22:01:54.809Z,99.90
2019-06-26T22:04:24.034Z,99.90
2019-06-26T22:06:52.824Z,99.90
2019-06-26T22:09:21.477Z,99.90
2019-06-26T22:11:50.074Z,99.90
2019-06-26T22:14:18.654Z,99.90
2019-06-26T22:16:47.314Z,99.90
2019-06-26T22:19:15.860Z,99.90
2019-06-26T22:21:44.571Z,99.90
2019-06-26T22:24:13.130Z,99.90
2019-06-26T22:26:42.533Z,99.90
2019-06-26T22:29:11.115Z,99.90
2019-06-26T22:31:41.287Z,99.90
2019-06-26T22:34:09.876Z,99.90
2019-06-26T22:36:38.723Z,99.90
2019-06-26T22:39:07.450Z,99.90
2019-06-26T22:41:36.081Z,99.90
2019-06-26T22:44:04.751Z,99.90
2019-06-26T22:46:33.300Z,99.90
2019-06-26T22:49:01.951Z,99.90
2019-06-26T22:51:30.650Z,99.90
2019-06-26T22:53:59.278Z,99.90
2019-06-26T22:56:27.896Z,99.90
2019-06-26T22:58:56.496Z,99.90
2019-06-26T23:01:25.116Z,99.90
2019-06-26T23:03:53.782Z,99.90
2019-06-26T23:06:22.425Z,99.90
2019-06-26T23:08:51.071Z,99.90
2019-06-26T23:11:19.620Z,99.90
2019-06-26T23:13:48.138Z,99.90
2019-06-26T23:16:16.825Z,99.90
2019-06-26T23:18:45.403Z,99.90
2019-06-26T23:21:14.029Z,99.90
2019-06-26T23:23:42.594Z,99.90
2019-06-26T23:26:23.373Z,99.90
2019-06-26T23:28:41.398Z,99.90
2019-06-26T23:31:10.044Z,99.90
2019-06-26T23:33:38.696Z,99.90
2019-06-26T23:36:07.433Z,99.90
2019-06-26T23:38:36.085Z,99.90
2019-06-26T23:41:04.715Z,99.90
2019-06-26T23:43:33.300Z,99.90
2019-06-26T23:46:01.876Z,99.90
2019-06-26T23:48:30.460Z,99.90
2019-06-26T23:50:59.038Z,99.90
2019-06-26T23:53:27.624Z,99.90
2019-06-26T23:55:57.056Z,99.90
2019-06-26T23:58:25.621Z,99.90
